sensor_id;sensor_type;location;lat;lon;timestamp;P1;durP1;ratioP1;P2;durP2;ratioP2
12689;SDS011;6409;56.294;14.480;2023-02-28T00:01:18;0.97;;;0.97;;
12689;SDS011;6409;56.294;14.480;2023-02-28T00:03:45;0.60;;;0.60;;
12689;SDS011;6409;56.294;14.480;2023-02-28T00:06:12;3.77;;;0.70;;
12689;SDS011;6409;56.294;14.480;2023-02-28T00:08:39;0.60;;;0.60;;
12689;SDS011;6409;56.294;14.480;2023-02-28T00:11:07;0.80;;;0.80;;
12689;SDS011;6409;56.294;14.480;2023-02-28T00:13:36;0.80;;;0.80;;
12689;SDS011;6409;56.294;14.480;2023-02-28T00:16:07;0.70;;;0.70;;
12689;SDS011;6409;56.294;14.480;2023-02-28T00:18:36;0.63;;;0.63;;
12689;SDS011;6409;56.294;14.480;2023-02-28T00:21:03;0.57;;;0.57;;
12689;SDS011;6409;56.294;14.480;2023-02-28T00:23:30;0.80;;;0.80;;
12689;SDS011;6409;56.294;14.480;2023-02-28T00:25:57;0.80;;;0.80;;
12689;SDS011;6409;56.294;14.480;2023-02-28T00:28:25;0.70;;;0.70;;
12689;SDS011;6409;56.294;14.480;2023-02-28T00:30:52;0.83;;;0.83;;
12689;SDS011;6409;56.294;14.480;2023-02-28T00:33:20;0.77;;;0.77;;
12689;SDS011;6409;56.294;14.480;2023-02-28T00:35:47;0.60;;;0.60;;
12689;SDS011;6409;56.294;14.480;2023-02-28T00:38:14;0.70;;;0.70;;
12689;SDS011;6409;56.294;14.480;2023-02-28T00:40:42;0.67;;;0.67;;
12689;SDS011;6409;56.294;14.480;2023-02-28T00:43:09;0.80;;;0.80;;
12689;SDS011;6409;56.294;14.480;2023-02-28T00:45:36;0.60;;;0.60;;
12689;SDS011;6409;56.294;14.480;2023-02-28T00:48:03;0.60;;;0.60;;
12689;SDS011;6409;56.294;14.480;2023-02-28T00:50:32;0.70;;;0.70;;
12689;SDS011;6409;56.294;14.480;2023-02-28T00:52:59;0.70;;;0.70;;
12689;SDS011;6409;56.294;14.480;2023-02-28T00:55:26;0.53;;;0.53;;
12689;SDS011;6409;56.294;14.480;2023-02-28T00:57:53;0.70;;;0.70;;
12689;SDS011;6409;56.294;14.480;2023-02-28T01:00:20;0.60;;;0.60;;
12689;SDS011;6409;56.294;14.480;2023-02-28T01:02:47;0.60;;;0.60;;
12689;SDS011;6409;56.294;14.480;2023-02-28T01:05:14;0.67;;;0.67;;
12689;SDS011;6409;56.294;14.480;2023-02-28T01:07:42;0.70;;;0.70;;
12689;SDS011;6409;56.294;14.480;2023-02-28T01:10:10;0.60;;;0.60;;
12689;SDS011;6409;56.294;14.480;2023-02-28T01:12:37;0.70;;;0.70;;
12689;SDS011;6409;56.294;14.480;2023-02-28T01:15:04;1.00;;;1.00;;
12689;SDS011;6409;56.294;14.480;2023-02-28T01:17:32;0.80;;;0.80;;
12689;SDS011;6409;56.294;14.480;2023-02-28T01:19:59;0.80;;;0.80;;
12689;SDS011;6409;56.294;14.480;2023-02-28T01:22:26;0.67;;;0.67;;
12689;SDS011;6409;56.294;14.480;2023-02-28T01:24:54;2.43;;;0.70;;
12689;SDS011;6409;56.294;14.480;2023-02-28T01:27:21;0.90;;;0.90;;
12689;SDS011;6409;56.294;14.480;2023-02-28T01:29:48;0.80;;;0.80;;
12689;SDS011;6409;56.294;14.480;2023-02-28T01:32:17;0.83;;;0.83;;
12689;SDS011;6409;56.294;14.480;2023-02-28T01:34:44;0.70;;;0.70;;
12689;SDS011;6409;56.294;14.480;2023-02-28T01:37:11;0.67;;;0.67;;
12689;SDS011;6409;56.294;14.480;2023-02-28T01:39:38;1.37;;;1.10;;
12689;SDS011;6409;56.294;14.480;2023-02-28T01:42:07;0.90;;;0.90;;
12689;SDS011;6409;56.294;14.480;2023-02-28T01:47:33;0.60;;;0.60;;
12689;SDS011;6409;56.294;14.480;2023-02-28T01:50:04;0.70;;;0.70;;
12689;SDS011;6409;56.294;14.480;2023-02-28T01:52:33;1.10;;;0.80;;
12689;SDS011;6409;56.294;14.480;2023-02-28T01:55:01;0.93;;;0.93;;
12689;SDS011;6409;56.294;14.480;2023-02-28T01:57:30;0.60;;;0.60;;
12689;SDS011;6409;56.294;14.480;2023-02-28T02:00:04;0.70;;;0.70;;
12689;SDS011;6409;56.294;14.480;2023-02-28T02:02:34;0.53;;;0.53;;
12689;SDS011;6409;56.294;14.480;2023-02-28T02:05:03;0.60;;;0.60;;
12689;SDS011;6409;56.294;14.480;2023-02-28T02:07:32;0.60;;;0.60;;
12689;SDS011;6409;56.294;14.480;2023-02-28T02:10:02;0.60;;;0.60;;
12689;SDS011;6409;56.294;14.480;2023-02-28T02:12:35;0.73;;;0.73;;
12689;SDS011;6409;56.294;14.480;2023-02-28T02:15:19;0.50;;;0.50;;
12689;SDS011;6409;56.294;14.480;2023-02-28T02:17:49;0.60;;;0.60;;
12689;SDS011;6409;56.294;14.480;2023-02-28T02:23:37;0.60;;;0.60;;
12689;SDS011;6409;56.294;14.480;2023-02-28T02:26:33;0.60;;;0.60;;
12689;SDS011;6409;56.294;14.480;2023-02-28T02:32:20;0.57;;;0.57;;
12689;SDS011;6409;56.294;14.480;2023-02-28T02:35:05;0.70;;;0.70;;
12689;SDS011;6409;56.294;14.480;2023-02-28T02:37:39;0.70;;;0.70;;
12689;SDS011;6409;56.294;14.480;2023-02-28T02:40:11;0.60;;;0.60;;
12689;SDS011;6409;56.294;14.480;2023-02-28T02:42:43;0.70;;;0.70;;
12689;SDS011;6409;56.294;14.480;2023-02-28T02:45:15;1.00;;;0.97;;
12689;SDS011;6409;56.294;14.480;2023-02-28T02:47:45;0.60;;;0.60;;
12689;SDS011;6409;56.294;14.480;2023-02-28T02:50:15;1.17;;;1.17;;
12689;SDS011;6409;56.294;14.480;2023-02-28T02:52:48;0.67;;;0.67;;
12689;SDS011;6409;56.294;14.480;2023-02-28T02:55:17;0.80;;;0.80;;
12689;SDS011;6409;56.294;14.480;2023-02-28T02:57:45;0.70;;;0.70;;
12689;SDS011;6409;56.294;14.480;2023-02-28T03:00:14;0.67;;;0.67;;
12689;SDS011;6409;56.294;14.480;2023-02-28T03:02:43;0.70;;;0.70;;
12689;SDS011;6409;56.294;14.480;2023-02-28T03:05:14;1.03;;;0.70;;
12689;SDS011;6409;56.294;14.480;2023-02-28T03:07:44;0.70;;;0.70;;
12689;SDS011;6409;56.294;14.480;2023-02-28T03:13:11;0.60;;;0.60;;
12689;SDS011;6409;56.294;14.480;2023-02-28T03:16:03;0.80;;;0.80;;
12689;SDS011;6409;56.294;14.480;2023-02-28T03:18:44;0.50;;;0.50;;
12689;SDS011;6409;56.294;14.480;2023-02-28T03:21:20;0.80;;;0.53;;
12689;SDS011;6409;56.294;14.480;2023-02-28T03:23:52;0.70;;;0.70;;
12689;SDS011;6409;56.294;14.480;2023-02-28T03:26:25;0.90;;;0.70;;
12689;SDS011;6409;56.294;14.480;2023-02-28T03:28:54;0.53;;;0.53;;
12689;SDS011;6409;56.294;14.480;2023-02-28T03:31:26;0.57;;;0.57;;
12689;SDS011;6409;56.294;14.480;2023-02-28T03:33:55;0.50;;;0.50;;
12689;SDS011;6409;56.294;14.480;2023-02-28T03:36:28;0.60;;;0.60;;
12689;SDS011;6409;56.294;14.480;2023-02-28T03:38:57;0.50;;;0.50;;
12689;SDS011;6409;56.294;14.480;2023-02-28T03:41:29;0.60;;;0.60;;
12689;SDS011;6409;56.294;14.480;2023-02-28T03:43:59;0.50;;;0.50;;
12689;SDS011;6409;56.294;14.480;2023-02-28T03:46:31;0.53;;;0.53;;
12689;SDS011;6409;56.294;14.480;2023-02-28T03:49:00;0.70;;;0.70;;
12689;SDS011;6409;56.294;14.480;2023-02-28T03:51:31;0.50;;;0.50;;
12689;SDS011;6409;56.294;14.480;2023-02-28T03:53:59;0.50;;;0.50;;
12689;SDS011;6409;56.294;14.480;2023-02-28T03:56:31;0.50;;;0.50;;
12689;SDS011;6409;56.294;14.480;2023-02-28T03:59:00;0.50;;;0.50;;
12689;SDS011;6409;56.294;14.480;2023-02-28T04:01:31;0.50;;;0.50;;
12689;SDS011;6409;56.294;14.480;2023-02-28T04:04:00;0.63;;;0.63;;
12689;SDS011;6409;56.294;14.480;2023-02-28T04:06:27;3.63;;;0.83;;
12689;SDS011;6409;56.294;14.480;2023-02-28T04:08:58;0.60;;;0.60;;
12689;SDS011;6409;56.294;14.480;2023-02-28T04:11:27;0.50;;;0.50;;
12689;SDS011;6409;56.294;14.480;2023-02-28T04:13:58;0.57;;;0.57;;
12689;SDS011;6409;56.294;14.480;2023-02-28T04:16:25;0.50;;;0.50;;
12689;SDS011;6409;56.294;14.480;2023-02-28T04:18:52;0.50;;;0.50;;
12689;SDS011;6409;56.294;14.480;2023-02-28T04:21:28;0.53;;;0.53;;
12689;SDS011;6409;56.294;14.480;2023-02-28T04:23:56;0.60;;;0.60;;
12689;SDS011;6409;56.294;14.480;2023-02-28T04:26:25;1.17;;;0.80;;
12689;SDS011;6409;56.294;14.480;2023-02-28T04:28:54;0.57;;;0.57;;
12689;SDS011;6409;56.294;14.480;2023-02-28T04:31:22;0.50;;;0.50;;
12689;SDS011;6409;56.294;14.480;2023-02-28T04:33:49;0.87;;;0.70;;
12689;SDS011;6409;56.294;14.480;2023-02-28T04:36:16;0.80;;;0.80;;
12689;SDS011;6409;56.294;14.480;2023-02-28T04:38:43;0.87;;;0.87;;
12689;SDS011;6409;56.294;14.480;2023-02-28T04:41:12;0.70;;;0.70;;
12689;SDS011;6409;56.294;14.480;2023-02-28T04:43:39;0.50;;;0.50;;
12689;SDS011;6409;56.294;14.480;2023-02-28T04:46:06;0.87;;;0.87;;
12689;SDS011;6409;56.294;14.480;2023-02-28T04:48:33;0.70;;;0.70;;
12689;SDS011;6409;56.294;14.480;2023-02-28T04:51:03;0.70;;;0.70;;
12689;SDS011;6409;56.294;14.480;2023-02-28T04:53:30;0.60;;;0.60;;
12689;SDS011;6409;56.294;14.480;2023-02-28T04:55:58;0.70;;;0.70;;
12689;SDS011;6409;56.294;14.480;2023-02-28T04:58:26;0.60;;;0.60;;
12689;SDS011;6409;56.294;14.480;2023-02-28T05:00:56;0.73;;;0.73;;
12689;SDS011;6409;56.294;14.480;2023-02-28T05:03:28;0.60;;;0.60;;
12689;SDS011;6409;56.294;14.480;2023-02-28T05:05:55;0.60;;;0.60;;
12689;SDS011;6409;56.294;14.480;2023-02-28T05:08:21;0.60;;;0.60;;
12689;SDS011;6409;56.294;14.480;2023-02-28T05:10:48;0.60;;;0.60;;
12689;SDS011;6409;56.294;14.480;2023-02-28T05:13:15;0.70;;;0.70;;
12689;SDS011;6409;56.294;14.480;2023-02-28T05:15:44;0.87;;;0.87;;
12689;SDS011;6409;56.294;14.480;2023-02-28T05:18:11;0.50;;;0.50;;
12689;SDS011;6409;56.294;14.480;2023-02-28T05:20:38;0.70;;;0.70;;
12689;SDS011;6409;56.294;14.480;2023-02-28T05:23:04;0.80;;;0.80;;
12689;SDS011;6409;56.294;14.480;2023-02-28T05:25:32;0.60;;;0.60;;
12689;SDS011;6409;56.294;14.480;2023-02-28T05:27:59;0.73;;;0.70;;
12689;SDS011;6409;56.294;14.480;2023-02-28T05:30:26;0.60;;;0.60;;
12689;SDS011;6409;56.294;14.480;2023-02-28T05:32:54;0.60;;;0.60;;
12689;SDS011;6409;56.294;14.480;2023-02-28T05:35:21;3.40;;;0.80;;
12689;SDS011;6409;56.294;14.480;2023-02-28T05:37:48;0.70;;;0.70;;
12689;SDS011;6409;56.294;14.480;2023-02-28T05:40:15;0.60;;;0.60;;
12689;SDS011;6409;56.294;14.480;2023-02-28T05:42:42;2.07;;;0.60;;
12689;SDS011;6409;56.294;14.480;2023-02-28T05:45:10;0.60;;;0.60;;
12689;SDS011;6409;56.294;14.480;2023-02-28T05:47:37;0.50;;;0.50;;
12689;SDS011;6409;56.294;14.480;2023-02-28T05:50:06;0.60;;;0.60;;
12689;SDS011;6409;56.294;14.480;2023-02-28T05:52:34;0.80;;;0.80;;
12689;SDS011;6409;56.294;14.480;2023-02-28T05:55:01;0.60;;;0.60;;
12689;SDS011;6409;56.294;14.480;2023-02-28T05:57:28;1.43;;;0.63;;
12689;SDS011;6409;56.294;14.480;2023-02-28T05:59:55;0.40;;;0.40;;
12689;SDS011;6409;56.294;14.480;2023-02-28T06:02:22;0.67;;;0.67;;
12689;SDS011;6409;56.294;14.480;2023-02-28T06:04:49;0.60;;;0.60;;
12689;SDS011;6409;56.294;14.480;2023-02-28T06:07:17;0.60;;;0.60;;
12689;SDS011;6409;56.294;14.480;2023-02-28T06:09:44;0.77;;;0.77;;
12689;SDS011;6409;56.294;14.480;2023-02-28T06:12:11;0.60;;;0.60;;
12689;SDS011;6409;56.294;14.480;2023-02-28T06:14:38;0.50;;;0.50;;
12689;SDS011;6409;56.294;14.480;2023-02-28T06:17:06;0.80;;;0.80;;
12689;SDS011;6409;56.294;14.480;2023-02-28T06:19:33;0.60;;;0.60;;
12689;SDS011;6409;56.294;14.480;2023-02-28T06:21:59;0.63;;;0.63;;
12689;SDS011;6409;56.294;14.480;2023-02-28T06:24:28;0.87;;;0.67;;
12689;SDS011;6409;56.294;14.480;2023-02-28T06:26:56;0.60;;;0.60;;
12689;SDS011;6409;56.294;14.480;2023-02-28T06:29:24;0.83;;;0.83;;
12689;SDS011;6409;56.294;14.480;2023-02-28T06:31:51;1.00;;;1.00;;
12689;SDS011;6409;56.294;14.480;2023-02-28T06:34:18;0.70;;;0.70;;
12689;SDS011;6409;56.294;14.480;2023-02-28T06:36:45;0.70;;;0.70;;
12689;SDS011;6409;56.294;14.480;2023-02-28T06:39:12;0.60;;;0.60;;
12689;SDS011;6409;56.294;14.480;2023-02-28T06:41:40;0.80;;;0.80;;
12689;SDS011;6409;56.294;14.480;2023-02-28T06:44:11;0.50;;;0.50;;
12689;SDS011;6409;56.294;14.480;2023-02-28T06:46:39;0.53;;;0.53;;
12689;SDS011;6409;56.294;14.480;2023-02-28T06:49:06;1.33;;;0.80;;
12689;SDS011;6409;56.294;14.480;2023-02-28T06:51:35;0.80;;;0.80;;
12689;SDS011;6409;56.294;14.480;2023-02-28T06:54:05;0.70;;;0.70;;
12689;SDS011;6409;56.294;14.480;2023-02-28T06:56:34;0.77;;;0.77;;
12689;SDS011;6409;56.294;14.480;2023-02-28T06:59:04;0.73;;;0.73;;
12689;SDS011;6409;56.294;14.480;2023-02-28T07:01:33;1.00;;;0.90;;
12689;SDS011;6409;56.294;14.480;2023-02-28T07:04:01;1.10;;;1.03;;
12689;SDS011;6409;56.294;14.480;2023-02-28T07:06:29;0.70;;;0.70;;
12689;SDS011;6409;56.294;14.480;2023-02-28T07:08:57;1.10;;;1.00;;
12689;SDS011;6409;56.294;14.480;2023-02-28T07:11:26;0.90;;;0.90;;
12689;SDS011;6409;56.294;14.480;2023-02-28T07:13:56;0.97;;;0.97;;
12689;SDS011;6409;56.294;14.480;2023-02-28T07:16:26;0.90;;;0.90;;
12689;SDS011;6409;56.294;14.480;2023-02-28T07:18:54;1.07;;;1.07;;
12689;SDS011;6409;56.294;14.480;2023-02-28T07:21:22;1.00;;;1.00;;
12689;SDS011;6409;56.294;14.480;2023-02-28T07:23:51;0.90;;;0.90;;
12689;SDS011;6409;56.294;14.480;2023-02-28T07:26:19;1.13;;;1.13;;
12689;SDS011;6409;56.294;14.480;2023-02-28T07:28:48;1.23;;;1.23;;
12689;SDS011;6409;56.294;14.480;2023-02-28T07:31:16;1.20;;;1.20;;
12689;SDS011;6409;56.294;14.480;2023-02-28T07:33:47;1.50;;;1.40;;
12689;SDS011;6409;56.294;14.480;2023-02-28T07:36:16;1.37;;;1.37;;
12689;SDS011;6409;56.294;14.480;2023-02-28T07:38:45;1.60;;;1.60;;
12689;SDS011;6409;56.294;14.480;2023-02-28T07:41:13;1.50;;;1.50;;
12689;SDS011;6409;56.294;14.480;2023-02-28T07:43:40;1.50;;;1.50;;
12689;SDS011;6409;56.294;14.480;2023-02-28T07:46:08;1.63;;;1.53;;
12689;SDS011;6409;56.294;14.480;2023-02-28T07:48:36;1.90;;;1.80;;
12689;SDS011;6409;56.294;14.480;2023-02-28T07:51:05;2.00;;;1.90;;
12689;SDS011;6409;56.294;14.480;2023-02-28T07:53:32;2.00;;;1.90;;
12689;SDS011;6409;56.294;14.480;2023-02-28T07:56:00;2.10;;;2.00;;
12689;SDS011;6409;56.294;14.480;2023-02-28T07:58:28;2.03;;;2.00;;
12689;SDS011;6409;56.294;14.480;2023-02-28T08:00:56;2.40;;;2.30;;
12689;SDS011;6409;56.294;14.480;2023-02-28T08:03:23;2.60;;;2.50;;
12689;SDS011;6409;56.294;14.480;2023-02-28T08:05:50;2.83;;;2.63;;
12689;SDS011;6409;56.294;14.480;2023-02-28T08:08:20;3.00;;;2.80;;
12689;SDS011;6409;56.294;14.480;2023-02-28T08:10:46;3.40;;;3.20;;
12689;SDS011;6409;56.294;14.480;2023-02-28T08:13:13;3.50;;;3.30;;
12689;SDS011;6409;56.294;14.480;2023-02-28T08:15:40;3.13;;;3.00;;
12689;SDS011;6409;56.294;14.480;2023-02-28T08:18:08;2.93;;;2.83;;
12689;SDS011;6409;56.294;14.480;2023-02-28T08:20:35;3.30;;;3.10;;
12689;SDS011;6409;56.294;14.480;2023-02-28T08:23:02;3.40;;;3.20;;
12689;SDS011;6409;56.294;14.480;2023-02-28T08:25:31;3.50;;;3.30;;
12689;SDS011;6409;56.294;14.480;2023-02-28T08:28:01;3.60;;;3.40;;
12689;SDS011;6409;56.294;14.480;2023-02-28T08:30:27;3.50;;;3.40;;
12689;SDS011;6409;56.294;14.480;2023-02-28T08:32:55;3.37;;;3.17;;
12689;SDS011;6409;56.294;14.480;2023-02-28T08:35:22;3.47;;;3.27;;
12689;SDS011;6409;56.294;14.480;2023-02-28T08:37:49;2.90;;;2.80;;
12689;SDS011;6409;56.294;14.480;2023-02-28T08:40:16;3.50;;;3.30;;
12689;SDS011;6409;56.294;14.480;2023-02-28T08:42:45;3.53;;;3.33;;
12689;SDS011;6409;56.294;14.480;2023-02-28T08:45:12;3.37;;;3.17;;
12689;SDS011;6409;56.294;14.480;2023-02-28T08:47:40;4.00;;;3.77;;
12689;SDS011;6409;56.294;14.480;2023-02-28T08:50:08;3.50;;;3.30;;
12689;SDS011;6409;56.294;14.480;2023-02-28T08:52:35;3.77;;;3.57;;
12689;SDS011;6409;56.294;14.480;2023-02-28T08:55:03;4.20;;;3.90;;
12689;SDS011;6409;56.294;14.480;2023-02-28T08:57:31;3.60;;;3.40;;
12689;SDS011;6409;56.294;14.480;2023-02-28T08:59:59;4.30;;;4.00;;
12689;SDS011;6409;56.294;14.480;2023-02-28T09:02:29;3.90;;;3.47;;
12689;SDS011;6409;56.294;14.480;2023-02-28T09:04:56;3.93;;;3.70;;
12689;SDS011;6409;56.294;14.480;2023-02-28T09:07:23;3.60;;;3.40;;
12689;SDS011;6409;56.294;14.480;2023-02-28T09:09:50;4.40;;;4.10;;
12689;SDS011;6409;56.294;14.480;2023-02-28T09:12:20;4.13;;;3.83;;
12689;SDS011;6409;56.294;14.480;2023-02-28T09:14:47;3.80;;;3.60;;
12689;SDS011;6409;56.294;14.480;2023-02-28T09:17:16;3.80;;;3.50;;
12689;SDS011;6409;56.294;14.480;2023-02-28T09:19:43;4.23;;;4.03;;
12689;SDS011;6409;56.294;14.480;2023-02-28T09:22:10;3.57;;;3.37;;
12689;SDS011;6409;56.294;14.480;2023-02-28T09:24:38;4.03;;;3.77;;
12689;SDS011;6409;56.294;14.480;2023-02-28T09:27:05;3.60;;;3.40;;
12689;SDS011;6409;56.294;14.480;2023-02-28T09:29:33;3.80;;;3.60;;
12689;SDS011;6409;56.294;14.480;2023-02-28T09:32:00;3.53;;;3.40;;
12689;SDS011;6409;56.294;14.480;2023-02-28T09:34:32;3.73;;;3.53;;
12689;SDS011;6409;56.294;14.480;2023-02-28T09:36:59;3.97;;;3.77;;
12689;SDS011;6409;56.294;14.480;2023-02-28T09:39:26;3.63;;;3.40;;
12689;SDS011;6409;56.294;14.480;2023-02-28T09:41:54;3.80;;;3.60;;
12689;SDS011;6409;56.294;14.480;2023-02-28T09:44:22;4.10;;;3.80;;
12689;SDS011;6409;56.294;14.480;2023-02-28T09:46:55;3.60;;;3.40;;
12689;SDS011;6409;56.294;14.480;2023-02-28T09:49:27;3.70;;;3.50;;
12689;SDS011;6409;56.294;14.480;2023-02-28T09:52:00;3.83;;;3.63;;
12689;SDS011;6409;56.294;14.480;2023-02-28T09:54:30;3.80;;;3.60;;
12689;SDS011;6409;56.294;14.480;2023-02-28T09:56:58;3.90;;;3.70;;
12689;SDS011;6409;56.294;14.480;2023-02-28T09:59:35;4.50;;;4.10;;
12689;SDS011;6409;56.294;14.480;2023-02-28T10:02:17;3.70;;;3.50;;
12689;SDS011;6409;56.294;14.480;2023-02-28T10:04:50;3.83;;;3.67;;
12689;SDS011;6409;56.294;14.480;2023-02-28T10:07:29;3.90;;;3.70;;
12689;SDS011;6409;56.294;14.480;2023-02-28T10:10:07;4.17;;;3.97;;
12689;SDS011;6409;56.294;14.480;2023-02-28T10:12:44;4.07;;;3.87;;
12689;SDS011;6409;56.294;14.480;2023-02-28T10:15:13;4.27;;;4.03;;
12689;SDS011;6409;56.294;14.480;2023-02-28T10:17:41;7.70;;;4.60;;
12689;SDS011;6409;56.294;14.480;2023-02-28T10:20:12;4.10;;;3.90;;
12689;SDS011;6409;56.294;14.480;2023-02-28T10:22:43;4.07;;;3.77;;
12689;SDS011;6409;56.294;14.480;2023-02-28T10:25:19;4.43;;;4.23;;
12689;SDS011;6409;56.294;14.480;2023-02-28T10:27:48;4.10;;;3.90;;
12689;SDS011;6409;56.294;14.480;2023-02-28T10:30:16;4.40;;;4.20;;
12689;SDS011;6409;56.294;14.480;2023-02-28T10:32:45;4.10;;;3.90;;
12689;SDS011;6409;56.294;14.480;2023-02-28T10:35:17;4.20;;;4.00;;
12689;SDS011;6409;56.294;14.480;2023-02-28T10:37:46;4.70;;;4.30;;
12689;SDS011;6409;56.294;14.480;2023-02-28T10:40:25;4.37;;;4.07;;
12689;SDS011;6409;56.294;14.480;2023-02-28T10:42:55;3.90;;;3.70;;
12689;SDS011;6409;56.294;14.480;2023-02-28T10:45:22;4.53;;;4.23;;
12689;SDS011;6409;56.294;14.480;2023-02-28T10:47:51;4.47;;;4.07;;
12689;SDS011;6409;56.294;14.480;2023-02-28T10:50:29;4.30;;;4.10;;
12689;SDS011;6409;56.294;14.480;2023-02-28T10:53:24;4.30;;;4.00;;
12689;SDS011;6409;56.294;14.480;2023-02-28T10:55:57;3.80;;;3.60;;
12689;SDS011;6409;56.294;14.480;2023-02-28T10:58:27;4.40;;;4.10;;
12689;SDS011;6409;56.294;14.480;2023-02-28T11:00:55;3.90;;;3.70;;
12689;SDS011;6409;56.294;14.480;2023-02-28T11:03:24;4.37;;;4.17;;
12689;SDS011;6409;56.294;14.480;2023-02-28T11:05:56;4.40;;;4.20;;
12689;SDS011;6409;56.294;14.480;2023-02-28T11:08:23;4.13;;;3.93;;
12689;SDS011;6409;56.294;14.480;2023-02-28T11:10:53;4.30;;;4.10;;
12689;SDS011;6409;56.294;14.480;2023-02-28T11:13:24;4.13;;;3.90;;
12689;SDS011;6409;56.294;14.480;2023-02-28T11:15:53;4.70;;;4.40;;
12689;SDS011;6409;56.294;14.480;2023-02-28T11:18:22;4.37;;;4.10;;
12689;SDS011;6409;56.294;14.480;2023-02-28T11:20:51;4.20;;;3.90;;
12689;SDS011;6409;56.294;14.480;2023-02-28T11:23:21;4.93;;;4.33;;
12689;SDS011;6409;56.294;14.480;2023-02-28T11:25:50;4.10;;;3.90;;
12689;SDS011;6409;56.294;14.480;2023-02-28T11:28:24;4.07;;;3.93;;
12689;SDS011;6409;56.294;14.480;2023-02-28T11:31:00;4.57;;;4.30;;
12689;SDS011;6409;56.294;14.480;2023-02-28T11:33:30;4.10;;;3.90;;
12689;SDS011;6409;56.294;14.480;2023-02-28T11:35:58;4.10;;;3.90;;
12689;SDS011;6409;56.294;14.480;2023-02-28T11:38:29;4.03;;;3.80;;
12689;SDS011;6409;56.294;14.480;2023-02-28T11:41:05;4.30;;;4.00;;
12689;SDS011;6409;56.294;14.480;2023-02-28T11:43:55;4.20;;;4.00;;
12689;SDS011;6409;56.294;14.480;2023-02-28T11:46:35;4.20;;;4.00;;
12689;SDS011;6409;56.294;14.480;2023-02-28T11:49:18;4.23;;;4.03;;
12689;SDS011;6409;56.294;14.480;2023-02-28T11:51:52;4.37;;;4.17;;
12689;SDS011;6409;56.294;14.480;2023-02-28T11:54:30;4.50;;;4.30;;
12689;SDS011;6409;56.294;14.480;2023-02-28T11:57:09;5.07;;;4.87;;
12689;SDS011;6409;56.294;14.480;2023-02-28T11:59:50;4.60;;;4.40;;
12689;SDS011;6409;56.294;14.480;2023-02-28T12:02:23;4.37;;;4.10;;
12689;SDS011;6409;56.294;14.480;2023-02-28T12:04:56;4.70;;;4.50;;
12689;SDS011;6409;56.294;14.480;2023-02-28T12:07:39;4.10;;;3.90;;
12689;SDS011;6409;56.294;14.480;2023-02-28T12:10:17;4.23;;;4.03;;
12689;SDS011;6409;56.294;14.480;2023-02-28T12:12:48;3.87;;;3.70;;
12689;SDS011;6409;56.294;14.480;2023-02-28T12:15:27;3.73;;;3.53;;
12689;SDS011;6409;56.294;14.480;2023-02-28T12:18:16;4.33;;;4.03;;
12689;SDS011;6409;56.294;14.480;2023-02-28T12:20:51;3.87;;;3.73;;
12689;SDS011;6409;56.294;14.480;2023-02-28T12:23:34;3.80;;;3.60;;
12689;SDS011;6409;56.294;14.480;2023-02-28T12:26:18;3.50;;;3.40;;
12689;SDS011;6409;56.294;14.480;2023-02-28T12:28:50;3.90;;;3.70;;
12689;SDS011;6409;56.294;14.480;2023-02-28T12:31:20;3.60;;;3.40;;
12689;SDS011;6409;56.294;14.480;2023-02-28T12:33:50;3.63;;;3.50;;
12689;SDS011;6409;56.294;14.480;2023-02-28T12:36:19;4.00;;;3.70;;
12689;SDS011;6409;56.294;14.480;2023-02-28T12:38:49;3.87;;;3.67;;
12689;SDS011;6409;56.294;14.480;2023-02-28T12:41:22;3.40;;;3.30;;
12689;SDS011;6409;56.294;14.480;2023-02-28T12:43:55;3.90;;;3.70;;
12689;SDS011;6409;56.294;14.480;2023-02-28T12:46:28;3.30;;;3.20;;
12689;SDS011;6409;56.294;14.480;2023-02-28T12:49:00;3.67;;;3.57;;
12689;SDS011;6409;56.294;14.480;2023-02-28T12:51:31;3.50;;;3.40;;
12689;SDS011;6409;56.294;14.480;2023-02-28T12:54:02;3.30;;;3.20;;
12689;SDS011;6409;56.294;14.480;2023-02-28T12:56:38;3.30;;;3.20;;
12689;SDS011;6409;56.294;14.480;2023-02-28T12:59:12;3.37;;;3.27;;
12689;SDS011;6409;56.294;14.480;2023-02-28T13:01:44;3.80;;;3.60;;
12689;SDS011;6409;56.294;14.480;2023-02-28T13:04:40;3.50;;;3.40;;
12689;SDS011;6409;56.294;14.480;2023-02-28T13:07:30;3.50;;;3.40;;
12689;SDS011;6409;56.294;14.480;2023-02-28T13:10:09;3.60;;;3.50;;
12689;SDS011;6409;56.294;14.480;2023-02-28T13:12:38;3.80;;;3.60;;
12689;SDS011;6409;56.294;14.480;2023-02-28T13:15:16;3.60;;;3.50;;
12689;SDS011;6409;56.294;14.480;2023-02-28T13:17:48;3.50;;;3.40;;
12689;SDS011;6409;56.294;14.480;2023-02-28T13:20:17;3.77;;;3.57;;
12689;SDS011;6409;56.294;14.480;2023-02-28T13:22:46;3.70;;;3.60;;
12689;SDS011;6409;56.294;14.480;2023-02-28T13:28:56;3.60;;;3.50;;
12689;SDS011;6409;56.294;14.480;2023-02-28T13:31:33;4.00;;;3.80;;
12689;SDS011;6409;56.294;14.480;2023-02-28T13:34:38;4.00;;;3.80;;
12689;SDS011;6409;56.294;14.480;2023-02-28T13:43:02;3.90;;;3.70;;
12689;SDS011;6409;56.294;14.480;2023-02-28T13:45:31;3.63;;;3.53;;
12689;SDS011;6409;56.294;14.480;2023-02-28T13:48:04;3.70;;;3.60;;
12689;SDS011;6409;56.294;14.480;2023-02-28T13:50:32;3.70;;;3.50;;
12689;SDS011;6409;56.294;14.480;2023-02-28T13:53:23;3.43;;;3.33;;
12689;SDS011;6409;56.294;14.480;2023-02-28T13:55:58;3.50;;;3.40;;
12689;SDS011;6409;56.294;14.480;2023-02-28T13:58:41;3.70;;;3.50;;
12689;SDS011;6409;56.294;14.480;2023-02-28T14:01:26;3.50;;;3.40;;
12689;SDS011;6409;56.294;14.480;2023-02-28T14:06:53;3.63;;;3.50;;
12689;SDS011;6409;56.294;14.480;2023-02-28T14:09:22;3.50;;;3.40;;
12689;SDS011;6409;56.294;14.480;2023-02-28T14:11:51;3.80;;;3.50;;
12689;SDS011;6409;56.294;14.480;2023-02-28T14:17:24;3.30;;;3.20;;
12689;SDS011;6409;56.294;14.480;2023-02-28T14:19:52;3.60;;;3.40;;
12689;SDS011;6409;56.294;14.480;2023-02-28T14:22:25;3.63;;;3.43;;
12689;SDS011;6409;56.294;14.480;2023-02-28T14:25:15;3.30;;;3.20;;
12689;SDS011;6409;56.294;14.480;2023-02-28T14:27:46;3.50;;;3.30;;
12689;SDS011;6409;56.294;14.480;2023-02-28T14:33:25;3.20;;;3.10;;
12689;SDS011;6409;56.294;14.480;2023-02-28T14:36:04;3.20;;;3.10;;
12689;SDS011;6409;56.294;14.480;2023-02-28T14:38:35;3.00;;;2.90;;
12689;SDS011;6409;56.294;14.480;2023-02-28T14:41:06;3.10;;;3.00;;
12689;SDS011;6409;56.294;14.480;2023-02-28T14:43:47;3.20;;;3.10;;
12689;SDS011;6409;56.294;14.480;2023-02-28T14:46:16;2.87;;;2.77;;
12689;SDS011;6409;56.294;14.480;2023-02-28T14:48:46;3.03;;;2.93;;
12689;SDS011;6409;56.294;14.480;2023-02-28T14:51:17;3.37;;;3.17;;
12689;SDS011;6409;56.294;14.480;2023-02-28T14:53:47;3.00;;;2.90;;
12689;SDS011;6409;56.294;14.480;2023-02-28T14:56:19;3.20;;;3.10;;
12689;SDS011;6409;56.294;14.480;2023-02-28T14:58:52;3.10;;;3.00;;
12689;SDS011;6409;56.294;14.480;2023-02-28T15:01:21;3.00;;;2.90;;
12689;SDS011;6409;56.294;14.480;2023-02-28T15:03:58;3.00;;;2.90;;
12689;SDS011;6409;56.294;14.480;2023-02-28T15:06:26;2.73;;;2.63;;
12689;SDS011;6409;56.294;14.480;2023-02-28T15:09:06;3.20;;;3.00;;
12689;SDS011;6409;56.294;14.480;2023-02-28T15:11:34;2.97;;;2.87;;
12689;SDS011;6409;56.294;14.480;2023-02-28T15:14:02;2.90;;;2.80;;
12689;SDS011;6409;56.294;14.480;2023-02-28T15:16:30;2.80;;;2.70;;
12689;SDS011;6409;56.294;14.480;2023-02-28T15:19:00;2.90;;;2.80;;
12689;SDS011;6409;56.294;14.480;2023-02-28T15:21:29;3.00;;;2.90;;
12689;SDS011;6409;56.294;14.480;2023-02-28T15:23:58;2.97;;;2.87;;
12689;SDS011;6409;56.294;14.480;2023-02-28T15:26:28;2.90;;;2.80;;
12689;SDS011;6409;56.294;14.480;2023-02-28T15:28:58;3.00;;;2.90;;
12689;SDS011;6409;56.294;14.480;2023-02-28T15:31:27;2.80;;;2.70;;
12689;SDS011;6409;56.294;14.480;2023-02-28T15:33:56;2.93;;;2.83;;
12689;SDS011;6409;56.294;14.480;2023-02-28T15:36:26;2.90;;;2.80;;
12689;SDS011;6409;56.294;14.480;2023-02-28T15:38:57;3.10;;;3.00;;